Time;durP1;ratioP1;P1;durP2;ratioP2;P2;SDS_P1;SDS_P2;PMS_P1;PMS_P2;Temp;Humidity;BMP_temperature;BMP_pressure;BME280_temperature;BME280_humidity;BME280_pressure;Samples;Min_cycle;Max_cycle;Signal;HPM_P1;HPM_P2
2023/06/12 00:01:03;;;;;;;8.73;4.22;;;;;;;-143.48;38.78;118439.88;5015899;28;20029;-75
2023/06/12 00:03:29;;;;;;;5.80;4.40;;;;;;;-143.48;37.83;118439.88;5033954;28;20529;-75
2023/06/12 00:06:00;;;;;;;5.75;4.32;;;;;;;-143.48;38.46;118439.88;5016026;28;20021;-75
2023/06/12 00:08:29;;;;;;;8.82;4.55;;;;;;;-143.48;39.36;118439.88;5016089;28;20503;-75
2023/06/12 00:10:54;;;;;;;7.50;4.65;;;;;;;-143.48;39.16;118439.88;5033769;28;20026;-76
2023/06/12 00:13:20;;;;;;;8.15;4.38;;;;;;;-143.48;40.02;118439.88;5015857;28;20048;-75
2023/06/12 00:15:45;;;;;;;8.32;4.55;;;;;;;-143.48;39.75;118439.88;5015917;28;20022;-75
2023/06/12 00:18:12;;;;;;;8.00;4.50;;;;;;;-143.48;39.61;118439.88;5015856;28;20056;-75
2023/06/12 00:20:37;;;;;;;8.20;4.43;;;;;;;-143.48;40.00;118439.88;5033689;28;20033;-74
2023/06/12 00:23:02;;;;;;;7.82;4.50;;;;;;;-143.48;39.23;118439.88;4999609;28;20485;-74
2023/06/12 00:25:28;;;;;;;6.47;4.60;;;;;;;-143.48;39.59;118439.88;5016196;28;20420;-75
2023/06/12 00:27:54;;;;;;;8.10;4.50;;;;;;;-143.48;39.28;118439.88;5033575;28;20026;-75
2023/06/12 00:30:20;;;;;;;7.93;4.45;;;;;;;-143.48;39.37;118439.88;5015742;28;20076;-75
2023/06/12 00:32:45;;;;;;;10.95;4.07;;;;;;;-143.48;39.55;118439.88;5015619;28;20116;-75
2023/06/12 00:35:11;;;;;;;8.70;4.53;;;;;;;-143.48;38.96;118439.88;5033304;28;20104;-75
2023/06/12 00:37:37;;;;;;;10.38;4.63;;;;;;;-143.48;38.53;118439.88;5015695;28;20469;-75
2023/06/12 00:40:03;;;;;;;7.20;4.15;;;;;;;-143.48;39.64;118439.88;5015577;28;20489;-76
2023/06/12 00:42:41;;;;;;;8.85;4.28;;;;;;;-143.48;40.13;118439.88;5015527;28;20022;-75
2023/06/12 00:45:07;;;;;;;7.80;4.18;;;;;;;-143.48;39.25;118439.88;5033225;28;20033;-75
2023/06/12 00:47:33;;;;;;;6.00;4.40;;;;;;;-143.48;39.59;118439.88;5015587;28;20028;-75
2023/06/12 00:49:58;;;;;;;7.55;4.43;;;;;;;-143.48;39.89;118439.88;5015500;28;20025;-75
2023/06/12 00:52:26;;;;;;;11.10;4.30;;;;;;;-143.48;40.40;118439.88;5015416;28;20105;-75
2023/06/12 00:54:53;;;;;;;6.95;4.28;;;;;;;-143.48;39.62;118439.88;5015405;28;20025;-75
2023/06/12 00:57:22;;;;;;;6.18;4.13;;;;;;;-143.48;39.33;118439.88;4998979;28;20040;-75
2023/06/12 00:59:48;;;;;;;9.40;4.32;;;;;;;-143.48;39.17;118439.88;4999298;28;20116;-74
2023/06/12 01:02:13;;;;;;;9.65;4.75;;;;;;;-143.48;39.45;118439.88;5015182;28;20475;-75
2023/06/12 01:04:42;;;;;;;7.20;4.18;;;;;;;-143.48;39.45;118439.88;5033166;28;20019;-75
2023/06/12 01:07:16;;;;;;;9.30;4.45;;;;;;;-143.48;39.14;118439.88;5016825;28;20030;-75
2023/06/12 01:10:08;;;;;;;8.45;4.47;;;;;;;-143.48;39.36;118439.88;5019183;28;20029;-75
2023/06/12 01:12:35;;;;;;;6.22;4.18;;;;;;;-143.48;39.42;118439.88;5036921;28;20017;-75
2023/06/12 01:15:01;;;;;;;6.97;4.00;;;;;;;-143.48;40.45;118439.88;5036896;28;20553;-75
2023/06/12 01:17:27;;;;;;;6.82;4.40;;;;;;;-143.48;40.42;118439.88;5036751;28;20104;-75
2023/06/12 01:19:56;;;;;;;6.30;4.28;;;;;;;-143.48;41.09;118439.88;5002783;28;20040;-75
2023/06/12 01:22:24;;;;;;;6.22;4.03;;;;;;;-143.48;40.54;118439.88;5018975;28;20068;-75
2023/06/12 01:25:10;;;;;;;6.80;4.22;;;;;;;-143.48;40.40;118439.88;5018857;28;20029;-75
2023/06/12 01:27:47;;;;;;;6.20;4.60;;;;;;;-143.48;41.09;118439.88;5018803;28;20440;-74
2023/06/12 01:30:31;;;;;;;7.85;4.35;;;;;;;-143.48;39.75;118439.88;5018754;28;20025;-74
2023/06/12 01:33:02;;;;;;;7.15;4.32;;;;;;;-143.48;40.77;118439.88;5018742;28;20037;-75
2023/06/12 01:35:30;;;;;;;9.73;4.38;;;;;;;-143.48;40.13;118439.88;5018619;28;20088;-75
2023/06/12 01:38:04;;;;;;;11.32;4.43;;;;;;;-143.48;40.24;118439.88;5018729;28;20025;-75
2023/06/12 01:40:31;;;;;;;8.27;4.57;;;;;;;-143.48;40.85;118439.88;5018633;28;20029;-75
2023/06/12 01:42:57;;;;;;;12.38;4.57;;;;;;;-143.48;40.79;118439.88;5018695;28;20128;-74
2023/06/12 01:45:22;;;;;;;7.78;4.55;;;;;;;-143.48;41.55;118439.88;5036376;28;20049;-74
2023/06/12 01:47:47;;;;;;;11.52;4.60;;;;;;;-143.48;41.84;118439.88;5036333;28;20029;-74
2023/06/12 01:50:13;;;;;;;9.15;4.45;;;;;;;-143.48;41.99;118439.88;5036210;28;20104;-75
2023/06/12 01:52:38;;;;;;;8.80;4.50;;;;;;;-143.48;42.15;118439.88;5036198;28;20075;-75
2023/06/12 01:55:05;;;;;;;6.55;4.53;;;;;;;-143.48;41.78;118439.88;5036047;28;20021;-75
2023/06/12 01:57:32;;;;;;;6.50;4.50;;;;;;;-143.48;41.36;118439.88;5018139;28;20026;-75
2023/06/12 01:59:59;;;;;;;5.90;4.53;;;;;;;-143.48;41.25;118439.88;5036138;28;20477;-75
2023/06/12 02:02:26;;;;;;;7.78;4.57;;;;;;;-143.48;41.19;118439.88;5035790;28;20050;-75
2023/06/12 02:04:52;;;;;;;7.85;4.47;;;;;;;-143.48;41.66;118439.88;5036071;28;20030;-75
2023/06/12 02:07:17;;;;;;;5.78;4.28;;;;;;;-143.48;41.36;118439.88;5018569;28;20032;-75
2023/06/12 02:09:42;;;;;;;7.50;4.53;;;;;;;-143.48;42.54;118439.88;5035899;28;20502;-75
2023/06/12 02:12:08;;;;;;;8.65;4.55;;;;;;;-143.48;41.40;118439.88;5035946;28;20104;-74
2023/06/12 02:14:33;;;;;;;8.57;4.70;;;;;;;-143.48;42.26;118439.88;5018015;28;20041;-74
2023/06/12 02:17:02;;;;;;;7.65;4.97;;;;;;;-143.48;42.78;118439.88;5017966;28;20056;-75
2023/06/12 02:19:28;;;;;;;8.82;4.80;;;;;;;-143.48;43.30;118439.88;5035032;28;20074;-75
2023/06/12 02:21:55;;;;;;;8.55;5.03;;;;;;;-143.48;43.58;118439.88;5017979;28;20029;-74
2023/06/12 02:24:25;;;;;;;7.47;4.60;;;;;;;-143.48;43.17;118439.88;5017959;28;20025;-75
2023/06/12 02:26:50;;;;;;;6.53;4.75;;;;;;;-143.48;43.96;118439.88;5018319;28;20496;-75
2023/06/12 02:29:16;;;;;;;8.15;4.55;;;;;;;-143.48;43.80;118439.88;5017741;28;20018;-74
2023/06/12 02:31:41;;;;;;;6.90;4.63;;;;;;;-143.48;43.24;118439.88;5035675;28;20491;-75
2023/06/12 02:34:07;;;;;;;12.63;5.20;;;;;;;-143.48;43.52;118439.88;5035408;28;20095;-75
2023/06/12 02:36:33;;;;;;;7.20;4.80;;;;;;;-143.48;43.06;118439.88;5017614;28;20416;-75
2023/06/12 02:39:00;;;;;;;7.22;4.60;;;;;;;-143.48;43.90;118439.88;5035396;28;20030;-75
2023/06/12 02:41:25;;;;;;;9.88;4.80;;;;;;;-143.48;43.66;118439.88;5017641;28;20025;-75
2023/06/12 02:43:51;;;;;;;7.45;4.80;;;;;;;-143.48;43.52;118439.88;5017551;28;20083;-75
2023/06/12 02:46:16;;;;;;;9.38;4.70;;;;;;;-143.48;43.65;118439.88;5035378;28;20083;-74
2023/06/12 02:48:42;;;;;;;7.13;4.63;;;;;;;-143.48;44.28;118439.88;5035164;28;20108;-74
2023/06/12 02:51:07;;;;;;;8.43;4.95;;;;;;;-143.48;44.42;118439.88;5017396;28;20532;-75
2023/06/12 02:53:34;;;;;;;7.43;5.28;;;;;;;-143.48;43.95;118439.88;5035245;28;20030;-75
2023/06/12 02:55:59;;;;;;;7.35;4.93;;;;;;;-143.48;44.75;118439.88;5017152;28;20476;-73
2023/06/12 02:58:25;;;;;;;9.35;5.25;;;;;;;-143.48;43.54;118439.88;5035106;28;20029;-74
2023/06/12 03:00:51;;;;;;;8.27;4.85;;;;;;;-143.48;44.47;118439.88;5017275;28;20064;-74
2023/06/12 03:03:17;;;;;;;8.50;4.63;;;;;;;-143.48;44.67;118439.88;5034720;28;20139;-74
2023/06/12 03:05:43;;;;;;;8.65;4.72;;;;;;;-143.48;44.83;118439.88;5034968;28;20017;-74
2023/06/12 03:08:09;;;;;;;9.02;5.38;;;;;;;-143.48;44.32;118439.88;5017097;28;20370;-74
2023/06/12 03:10:35;;;;;;;8.27;5.22;;;;;;;-143.48;44.08;118439.88;5034758;28;20043;-74
2023/06/12 03:13:01;;;;;;;6.18;4.70;;;;;;;-143.48;44.26;118439.88;5017023;28;20031;-74
2023/06/12 03:15:26;;;;;;;8.23;4.85;;;;;;;-143.48;43.93;118439.88;5034651;28;20025;-74
2023/06/12 03:17:52;;;;;;;14.65;5.63;;;;;;;-143.48;43.98;118439.88;5034611;28;20367;-75
2023/06/12 03:20:17;;;;;;;7.75;5.20;;;;;;;-143.48;44.26;118439.88;5034652;28;20037;-74
2023/06/12 03:22:43;;;;;;;12.88;5.10;;;;;;;-143.48;43.79;118439.88;5034601;28;20028;-74
2023/06/12 03:25:10;;;;;;;10.23;5.47;;;;;;;-143.48;44.77;118439.88;5034648;28;20029;-74
2023/06/12 03:27:36;;;;;;;9.48;5.30;;;;;;;-143.48;44.75;118439.88;5016871;28;20034;-74
2023/06/12 03:30:02;;;;;;;10.50;5.03;;;;;;;-143.48;44.58;118439.88;5015784;28;20116;-75
2023/06/12 03:32:28;;;;;;;10.00;4.95;;;;;;;-143.48;44.18;118439.88;5034163;28;20025;-75
2023/06/12 03:34:54;;;;;;;6.75;4.97;;;;;;;-143.48;44.12;118439.88;5034156;28;20044;-75
2023/06/12 03:37:19;;;;;;;7.00;5.03;;;;;;;-143.48;44.71;118439.88;5034181;28;20030;-75
2023/06/12 03:39:44;;;;;;;15.20;5.50;;;;;;;-143.48;44.59;118439.88;5034233;28;20025;-75
2023/06/12 03:42:10;;;;;;;8.68;5.35;;;;;;;-143.48;45.34;118439.88;5034073;28;20028;-75
2023/06/12 03:44:36;;;;;;;10.23;5.15;;;;;;;-143.48;44.11;118439.88;5034147;28;20026;-75
2023/06/12 03:47:01;;;;;;;11.88;5.40;;;;;;;-143.48;44.10;118439.88;5034019;28;20362;-74
2023/06/12 03:49:26;;;;;;;8.45;5.30;;;;;;;-143.48;43.62;118439.88;5033966;28;20392;-75
2023/06/12 03:52:00;;;;;;;8.90;5.20;;;;;;;-143.48;44.65;118439.88;5111859;27;20185;-39
2023/06/12 03:54:25;;;;;;;8.45;5.47;;;;;;;-143.48;44.47;118439.88;5111315;28;20032;-39
2023/06/12 03:56:51;;;;;;;10.98;5.45;;;;;;;-143.48;44.66;118439.88;5111837;28;20019;-39
2023/06/12 03:59:18;;;;;;;7.93;5.10;;;;;;;-143.48;44.85;118439.88;5111422;28;20424;-38
2023/06/12 04:01:44;;;;;;;9.82;5.68;;;;;;;-143.48;44.34;118439.88;5111445;28;20016;-39
2023/06/12 04:04:10;;;;;;;10.55;6.03;;;;;;;-143.48;45.07;118439.88;5111115;28;20034;-39
2023/06/12 04:06:40;;;;;;;8.18;5.47;;;;;;;-143.48;45.80;118439.88;5111035;28;20081;-39
2023/06/12 04:09:09;;;;;;;7.88;5.65;;;;;;;-143.48;45.42;118439.88;5111285;28;20024;-40
2023/06/12 04:11:35;;;;;;;9.57;5.20;;;;;;;-143.48;45.23;118439.88;5110810;28;20031;-39
2023/06/12 04:14:01;;;;;;;13.38;5.50;;;;;;;-143.48;45.86;118439.88;5110880;28;20028;-40
2023/06/12 04:16:27;;;;;;;10.73;5.28;;;;;;;-143.48;46.15;118439.88;5111373;28;20028;-40
2023/06/12 04:18:53;;;;;;;8.57;5.22;;;;;;;-143.48;46.79;118439.88;5111102;28;20123;-40
2023/06/12 04:21:20;;;;;;;9.13;5.00;;;;;;;-143.48;45.75;118439.88;5111008;28;20462;-40
2023/06/12 04:23:47;;;;;;;10.75;4.90;;;;;;;-143.48;47.65;118439.88;5111002;28;20020;-40
2023/06/12 04:26:14;;;;;;;9.00;4.97;;;;;;;-143.48;47.10;118439.88;5110968;28;20023;-40
2023/06/12 04:28:41;;;;;;;7.45;4.80;;;;;;;-143.48;47.68;118439.88;5110631;28;20026;-40
2023/06/12 04:31:07;;;;;;;10.07;5.03;;;;;;;-143.48;47.71;118439.88;5109514;28;20031;-40
2023/06/12 04:33:35;;;;;;;9.57;4.78;;;;;;;-143.48;47.22;118439.88;5110848;28;20148;-40
2023/06/12 04:36:02;;;;;;;10.95;5.07;;;;;;;-143.48;45.74;118439.88;5110387;28;20035;-40
2023/06/12 04:38:30;;;;;;;8.93;5.53;;;;;;;-143.48;46.08;118439.88;5100286;28;20160;-40
2023/06/12 04:40:56;;;;;;;9.75;5.10;;;;;;;-143.48;46.20;118439.88;5089649;28;20016;-40
2023/06/12 04:43:23;;;;;;;8.90;5.10;;;;;;;-143.48;45.85;118439.88;5088679;28;20111;-40
2023/06/12 04:45:49;;;;;;;13.02;5.13;;;;;;;-143.48;46.83;118439.88;5090264;28;20373;-40
2023/06/12 04:48:15;;;;;;;9.20;4.95;;;;;;;-143.48;47.40;118439.88;5090217;28;20061;-39
2023/06/12 04:50:40;;;;;;;8.23;5.00;;;;;;;-143.48;48.12;118439.88;5099129;28;20586;-38
2023/06/12 04:53:06;;;;;;;10.10;5.50;;;;;;;-143.48;47.91;118439.88;5110464;28;20087;-40
2023/06/12 04:55:32;;;;;;;8.18;5.05;;;;;;;-143.48;48.52;118439.88;5110076;28;20023;-39
2023/06/12 04:57:58;;;;;;;6.30;4.95;;;;;;;-143.48;47.22;118439.88;5110046;28;20424;-39
2023/06/12 05:00:23;;;;;;;11.32;5.20;;;;;;;-143.48;49.34;118439.88;5110014;28;20016;-39
2023/06/12 05:02:49;;;;;;;9.95;5.70;;;;;;;-143.48;47.76;118439.88;5099412;28;20028;-39
2023/06/12 05:05:15;;;;;;;16.67;5.50;;;;;;;-143.48;48.04;118439.88;5096512;28;20028;-39
2023/06/12 05:07:45;;;;;;;8.88;5.18;;;;;;;-143.48;47.22;118439.88;5096605;28;20497;-39
2023/06/12 05:10:10;;;;;;;11.00;5.30;;;;;;;-143.48;46.93;118439.88;5096385;28;20481;-39
2023/06/12 05:12:36;;;;;;;11.65;6.03;;;;;;;-143.48;46.70;118439.88;5096167;28;20020;-39
2023/06/12 05:15:01;;;;;;;12.30;5.70;;;;;;;-143.48;46.81;118439.88;5096465;28;20370;-40
2023/06/12 05:17:27;;;;;;;10.63;5.82;;;;;;;-143.48;44.92;118439.88;5096367;28;20471;-39
2023/06/12 05:19:53;;;;;;;7.10;5.15;;;;;;;-143.48;45.58;118439.88;5096579;28;20020;-39
2023/06/12 05:22:18;;;;;;;12.13;5.63;;;;;;;-143.48;44.25;118439.88;5095953;28;20020;-40
2023/06/12 05:24:43;;;;;;;14.23;5.53;;;;;;;-143.48;43.87;118439.88;5096497;28;20032;-40
2023/06/12 05:27:10;;;;;;;12.73;5.80;;;;;;;-143.48;43.78;118439.88;5096101;28;20028;-41
2023/06/12 05:29:35;;;;;;;8.05;5.15;;;;;;;-143.48;44.38;118439.88;5095712;28;20020;-40
2023/06/12 05:32:01;;;;;;;8.88;5.40;;;;;;;-143.48;43.35;118439.88;5096076;28;20035;-40
2023/06/12 05:34:26;;;;;;;12.60;5.65;;;;;;;-143.48;40.60;118439.88;5095727;28;20024;-40
2023/06/12 05:36:51;;;;;;;12.27;5.18;;;;;;;-143.48;37.47;118439.88;5096026;28;20027;-40
2023/06/12 05:39:17;;;;;;;8.13;4.90;;;;;;;-143.48;35.22;118439.88;5095628;28;20077;-40
2023/06/12 05:41:42;;;;;;;13.05;5.72;;;;;;;-143.48;34.34;118439.88;5077546;28;20016;-41
2023/06/12 05:44:08;;;;;;;10.02;4.97;;;;;;;-143.48;34.02;118439.88;5095820;28;20028;-40
2023/06/12 05:46:34;;;;;;;12.18;5.03;;;;;;;-143.48;33.24;118439.88;5095662;28;20505;-41
2023/06/12 05:49:00;;;;;;;9.98;4.82;;;;;;;-143.48;31.96;118439.88;5095775;28;20032;-41
2023/06/12 05:51:26;;;;;;;12.85;4.95;;;;;;;-143.48;32.51;118439.88;5095301;28;20047;-41
2023/06/12 05:53:51;;;;;;;12.05;4.97;;;;;;;-143.48;30.92;118439.88;5095462;28;20027;-41
2023/06/12 05:56:16;;;;;;;15.70;5.15;;;;;;;-143.48;32.35;118439.88;5095399;28;20027;-41
2023/06/12 05:58:44;;;;;;;9.32;4.78;;;;;;;-143.48;32.82;118439.88;5095268;28;20052;-40
2023/06/12 06:01:11;;;;;;;10.02;4.90;;;;;;;-143.48;30.86;118439.88;5095281;28;20012;-41
2023/06/12 06:03:42;;;;;;;14.00;4.68;;;;;;;-143.48;31.91;118439.88;5095523;28;20027;-40
2023/06/12 06:06:08;;;;;;;9.40;4.60;;;;;;;-143.48;32.68;118439.88;5094921;28;20024;-40
2023/06/12 06:08:33;;;;;;;12.25;5.45;;;;;;;-143.48;31.89;118439.88;5095320;28;20028;-40
2023/06/12 06:10:59;;;;;;;11.40;5.78;;;;;;;-143.48;31.47;118439.88;5094921;28;20066;-40
2023/06/12 06:13:24;;;;;;;14.40;4.82;;;;;;;-143.48;30.89;118439.88;5094553;28;20062;-41
2023/06/12 06:15:49;;;;;;;10.98;4.93;;;;;;;-143.48;31.36;118439.88;5095116;28;20125;-41
2023/06/12 06:18:15;;;;;;;15.25;5.05;;;;;;;-143.48;30.58;118439.88;5095213;28;20517;-41
2023/06/12 06:20:40;;;;;;;10.07;5.00;;;;;;;-143.48;30.50;118439.88;5094715;28;20517;-41
2023/06/12 06:23:05;;;;;;;13.40;5.07;;;;;;;-143.48;30.07;118439.88;5094722;28;20108;-41
2023/06/12 06:25:31;;;;;;;12.93;5.15;;;;;;;-143.48;30.17;118439.88;5095042;28;20073;-41
2023/06/12 06:27:57;;;;;;;9.65;5.20;;;;;;;-143.48;31.10;118439.88;5094707;28;20028;-41
2023/06/12 06:30:22;;;;;;;8.10;5.18;;;;;;;-143.48;31.94;118439.88;5094476;28;20078;-40
2023/06/12 06:32:49;;;;;;;10.43;5.35;;;;;;;-143.48;32.48;118439.88;5095116;28;20034;-41
2023/06/12 06:35:15;;;;;;;13.00;5.10;;;;;;;-143.48;32.19;118439.88;5094784;28;20146;-41
2023/06/12 06:37:40;;;;;;;12.80;4.90;;;;;;;-143.48;31.28;118439.88;5094448;28;20114;-41
2023/06/12 06:40:06;;;;;;;10.98;4.70;;;;;;;-143.48;32.65;118439.88;5094833;28;20020;-41
2023/06/12 06:42:31;;;;;;;11.23;4.75;;;;;;;-143.48;34.72;118439.88;5094482;28;20487;-41
2023/06/12 06:44:56;;;;;;;12.05;5.13;;;;;;;-143.48;34.40;118439.88;5076286;28;20106;-40
2023/06/12 06:47:22;;;;;;;10.18;4.85;;;;;;;-143.48;33.05;118439.88;5094309;28;20394;-40
2023/06/12 06:49:47;;;;;;;11.88;5.10;;;;;;;-143.48;34.59;118439.88;5094223;28;20036;-40
2023/06/12 06:52:17;;;;;;;8.85;5.20;;;;;;;-143.48;34.14;118439.88;5076205;28;20027;-40
2023/06/12 06:54:42;;;;;;;7.25;5.10;;;;;;;-143.48;33.16;118439.88;5075924;28;20081;-40
2023/06/12 06:57:07;;;;;;;10.50;5.25;;;;;;;-143.48;33.97;118439.88;5094335;28;20463;-40
2023/06/12 06:59:32;;;;;;;8.77;5.28;;;;;;;-143.48;33.86;118439.88;5094414;28;20032;-41
2023/06/12 07:01:58;;;;;;;13.93;5.50;;;;;;;-143.48;33.46;118439.88;5094539;28;20411;-40
2023/06/12 07:04:23;;;;;;;9.63;5.28;;;;;;;-143.48;33.92;118439.88;5094650;28;20024;-40
2023/06/12 07:06:48;;;;;;;10.70;5.70;;;;;;;-143.48;34.75;118439.88;5094034;28;20024;-41
2023/06/12 07:09:14;;;;;;;8.65;5.07;;;;;;;-143.48;34.09;118439.88;5094148;28;20173;-40
2023/06/12 07:11:39;;;;;;;11.38;5.50;;;;;;;-143.48;33.22;118439.88;5093946;28;20020;-40
2023/06/12 07:14:04;;;;;;;9.38;5.88;;;;;;;-143.48;34.08;118439.88;5094465;28;20433;-41
2023/06/12 07:16:31;;;;;;;9.32;5.32;;;;;;;-143.48;34.07;118439.88;5094561;28;20028;-41
2023/06/12 07:18:56;;;;;;;12.23;5.40;;;;;;;-143.48;33.28;118439.88;5094214;28;20024;-41
2023/06/12 07:21:22;;;;;;;12.82;5.68;;;;;;;-143.48;34.19;118439.88;5094058;28;20174;-41
2023/06/12 07:23:50;;;;;;;8.10;5.10;;;;;;;-143.48;35.32;118439.88;5076057;28;20028;-41
2023/06/12 07:26:16;;;;;;;10.00;5.38;;;;;;;-143.48;34.45;118439.88;5093801;28;20374;-41
2023/06/12 07:28:41;;;;;;;7.70;4.88;;;;;;;-143.48;35.09;118439.88;5093663;28;20028;-40
2023/06/12 07:31:06;;;;;;;8.60;5.38;;;;;;;-143.48;32.97;118439.88;5094200;28;20027;-41
2023/06/12 07:33:31;;;;;;;8.60;5.22;;;;;;;-143.48;33.21;118439.88;5093722;28;20596;-40
2023/06/12 07:35:57;;;;;;;7.13;5.15;;;;;;;-143.48;32.52;118439.88;5093599;28;20024;-41
2023/06/12 07:38:22;;;;;;;11.38;5.00;;;;;;;-143.48;32.40;118439.88;5093746;28;20027;-41
2023/06/12 07:40:47;;;;;;;11.27;5.38;;;;;;;-143.48;33.47;118439.88;5093930;28;20020;-40
2023/06/12 07:43:13;;;;;;;11.88;5.25;;;;;;;-143.48;32.35;118439.88;5093849;28;20044;-41
2023/06/12 07:45:38;;;;;;;10.95;5.40;;;;;;;-143.48;32.88;118439.88;5093852;28;20085;-40
2023/06/12 07:48:04;;;;;;;9.35;5.00;;;;;;;-143.48;32.38;118439.88;5093803;28;20038;-41
2023/06/12 07:50:29;;;;;;;10.80;5.13;;;;;;;-143.48;32.54;118439.88;5093353;28;20063;-41
2023/06/12 07:52:55;;;;;;;12.85;5.18;;;;;;;-143.48;33.19;118439.88;5093794;28;20454;-41
2023/06/12 07:55:20;;;;;;;11.43;5.63;;;;;;;-143.48;33.46;118439.88;5093521;28;20418;-49
2023/06/12 07:57:47;;;;;;;8.10;5.30;;;;;;;-143.48;33.30;118439.88;5093421;28;20048;-41
2023/06/12 08:00:13;;;;;;;11.57;5.70;;;;;;;-143.48;33.37;118439.88;5093302;28;20377;-41
2023/06/12 08:02:40;;;;;;;10.07;5.25;;;;;;;-143.48;33.60;118439.88;5093690;28;20482;-40
2023/06/12 08:05:06;;;;;;;14.07;5.22;;;;;;;-143.48;32.57;118439.88;5093364;28;20020;-41
2023/06/12 08:07:33;;;;;;;7.93;4.93;;;;;;;-143.48;32.19;118439.88;5093689;28;20028;-41
2023/06/12 08:09:58;;;;;;;10.40;4.63;;;;;;;-143.48;30.46;118439.88;5075463;28;20059;-41
2023/06/12 08:12:26;;;;;;;15.70;5.20;;;;;;;-143.48;30.55;118439.88;5076116;28;20450;-39
2023/06/12 08:14:53;;;;;;;8.90;4.70;;;;;;;-143.48;31.41;118439.88;5093261;28;20035;-39
2023/06/12 08:17:20;;;;;;;8.93;5.28;;;;;;;-143.48;31.77;118439.88;5075055;28;20459;-41
2023/06/12 08:19:45;;;;;;;11.00;5.10;;;;;;;-143.48;31.94;118439.88;5093372;28;20027;-41
2023/06/12 08:22:11;;;;;;;7.63;5.00;;;;;;;-143.48;32.02;118439.88;5075245;28;20024;-39
2023/06/12 08:24:38;;;;;;;7.60;5.30;;;;;;;-143.48;31.23;118439.88;5093089;28;20027;-39
2023/06/12 08:27:04;;;;;;;12.38;5.32;;;;;;;-143.48;30.73;118439.88;5093561;28;20032;-40
2023/06/12 08:29:29;;;;;;;8.73;4.80;;;;;;;-143.48;30.78;118439.88;5093555;28;20112;-40
2023/06/12 08:32:04;;;;;;;9.18;5.35;;;;;;;-143.48;30.97;118439.88;5092961;28;20509;-40
2023/06/12 08:34:30;;;;;;;9.13;4.88;;;;;;;-143.48;29.67;118439.88;5093390;28;20063;-39
2023/06/12 08:36:56;;;;;;;8.93;4.93;;;;;;;-143.48;30.89;118439.88;5075579;28;20115;-40
2023/06/12 08:39:21;;;;;;;9.80;4.97;;;;;;;-143.48;30.35;118439.88;5096554;28;20027;-40
2023/06/12 08:42:05;;;;;;;8.70;4.80;;;;;;;-143.48;29.85;118439.88;5097643;28;20020;-40
2023/06/12 08:44:31;;;;;;;13.10;5.15;;;;;;;-143.48;29.75;118439.88;5096747;28;20089;-40
2023/06/12 08:47:00;;;;;;;7.63;4.65;;;;;;;-143.48;30.11;118439.88;5096973;28;20020;-41
2023/06/12 08:49:26;;;;;;;11.25;4.82;;;;;;;-143.48;29.84;118439.88;5097341;28;20031;-40
2023/06/12 08:51:51;;;;;;;7.80;4.80;;;;;;;-143.48;29.64;118439.88;5078695;28;20048;-40
2023/06/12 08:54:17;;;;;;;9.80;4.65;;;;;;;-143.48;29.03;118439.88;5097127;28;20032;-40
2023/06/12 08:56:43;;;;;;;8.50;4.57;;;;;;;-143.48;28.96;118439.88;5096845;28;20024;-40
2023/06/12 08:59:09;;;;;;;5.80;4.50;;;;;;;-143.48;29.30;118439.88;5096533;28;20107;-40
2023/06/12 09:01:38;;;;;;;6.18;4.70;;;;;;;-143.48;29.26;118439.88;5096446;28;20020;-40
2023/06/12 09:04:09;;;;;;;8.63;4.40;;;;;;;-143.48;27.64;118439.88;5097089;28;20097;-40
2023/06/12 09:06:36;;;;;;;7.28;4.40;;;;;;;-143.48;28.20;118439.88;5096299;28;20023;-40
2023/06/12 09:09:03;;;;;;;8.30;4.53;;;;;;;-143.48;28.61;118439.88;5096287;28;20024;-40
2023/06/12 09:11:28;;;;;;;9.55;4.60;;;;;;;-143.48;27.70;118439.88;5096333;28;20024;-40
2023/06/12 09:13:53;;;;;;;10.27;4.10;;;;;;;-143.48;27.56;118439.88;5096203;28;20028;-41
2023/06/12 09:16:19;;;;;;;6.80;4.40;;;;;;;-143.48;27.01;118439.88;5096189;28;20040;-40
2023/06/12 09:18:52;;;;;;;7.20;4.68;;;;;;;-143.48;27.66;118439.88;5096439;28;20028;-40
2023/06/12 09:21:18;;;;;;;9.35;4.50;;;;;;;-143.48;26.90;118439.88;5096359;28;20020;-40
2023/06/12 09:23:45;;;;;;;7.93;4.40;;;;;;;-143.48;27.31;118439.88;5096601;28;20119;-40
2023/06/12 09:26:16;;;;;;;11.52;4.32;;;;;;;-143.48;25.97;118439.88;5096299;28;20476;-41
2023/06/12 09:28:43;;;;;;;7.78;4.30;;;;;;;-143.48;26.27;118439.88;5095869;28;20039;-41
2023/06/12 09:31:08;;;;;;;6.88;4.15;;;;;;;-143.48;26.35;118439.88;5077839;28;20536;-40
2023/06/12 09:33:38;;;;;;;6.57;4.53;;;;;;;-143.48;26.66;118439.88;5095893;28;20024;-39
2023/06/12 09:36:04;;;;;;;10.75;4.53;;;;;;;-143.48;26.28;118439.88;5095842;28;20055;-39
2023/06/12 09:38:35;;;;;;;10.88;4.63;;;;;;;-143.48;26.00;118439.88;5095923;28;20032;-40
2023/06/12 09:41:03;;;;;;;9.15;4.32;;;;;;;-143.48;25.99;118439.88;5094284;28;20031;-39
2023/06/12 09:43:29;;;;;;;6.93;4.30;;;;;;;-143.48;26.18;118439.88;5077433;28;20051;-44
2023/06/12 09:45:55;;;;;;;9.32;4.55;;;;;;;-143.48;26.44;118439.88;5095041;28;20117;-39
2023/06/12 09:48:24;;;;;;;8.80;4.47;;;;;;;-143.48;25.80;118439.88;5095393;28;20390;-40
2023/06/12 09:50:49;;;;;;;6.00;3.90;;;;;;;-143.48;26.97;118439.88;5095194;28;20044;-40
2023/06/12 09:53:20;;;;;;;9.65;4.20;;;;;;;-143.48;26.34;118439.88;5095666;28;20028;-40
2023/06/12 09:55:46;;;;;;;7.68;4.20;;;;;;;-143.48;26.62;118439.88;5095351;28;20031;-40
2023/06/12 09:58:13;;;;;;;9.23;4.10;;;;;;;-143.48;26.42;118439.88;5095380;28;20023;-40
2023/06/12 10:00:39;;;;;;;6.50;4.50;;;;;;;-143.48;26.29;118439.88;5094748;28;20485;-40
2023/06/12 10:03:09;;;;;;;8.05;4.13;;;;;;;-143.48;26.13;118439.88;5095169;28;20020;-40
2023/06/12 10:05:42;;;;;;;7.80;4.38;;;;;;;-143.48;25.84;118439.88;5095097;28;20359;-40
2023/06/12 10:08:08;;;;;;;6.28;4.07;;;;;;;-143.48;25.76;118439.88;5095123;28;20020;-40
2023/06/12 10:10:35;;;;;;;8.95;3.85;;;;;;;-143.48;24.87;118439.88;5095064;28;20378;-40
2023/06/12 10:13:02;;;;;;;8.07;3.95;;;;;;;-143.48;24.82;118439.88;5095358;28;20038;-40
2023/06/12 10:15:29;;;;;;;10.45;4.45;;;;;;;-143.48;25.81;118439.88;5095561;28;20020;-39
2023/06/12 10:17:56;;;;;;;5.70;3.95;;;;;;;-143.48;26.17;118439.88;5095240;28;20462;-40
2023/06/12 10:20:23;;;;;;;7.72;3.90;;;;;;;-143.48;26.07;118439.88;5094632;28;20056;-40
2023/06/12 10:22:50;;;;;;;8.38;3.95;;;;;;;-143.48;25.71;118439.88;5095369;28;20020;-39
2023/06/12 10:25:16;;;;;;;9.20;3.70;;;;;;;-143.48;25.37;118439.88;5094841;28;20024;-40
2023/06/12 10:27:43;;;;;;;8.20;4.32;;;;;;;-143.48;24.54;118439.88;5076962;28;20047;-39
2023/06/12 10:30:12;;;;;;;18.02;4.80;;;;;;;-143.48;24.14;118439.88;5094854;28;20027;-39
2023/06/12 10:32:42;;;;;;;17.30;4.30;;;;;;;-143.48;24.64;118439.88;5094914;28;20381;-39
2023/06/12 10:35:08;;;;;;;8.40;3.83;;;;;;;-143.48;24.84;118439.88;5094575;28;20069;-39
2023/06/12 10:37:38;;;;;;;8.43;4.13;;;;;;;-143.48;24.44;118439.88;5094758;28;20027;-40
2023/06/12 10:40:19;;;;;;;6.38;3.65;;;;;;;-143.48;23.87;118439.88;5095090;28;20024;-40
2023/06/12 10:42:53;;;;;;;6.10;3.63;;;;;;;-143.48;24.41;118439.88;5094414;28;20023;-40
2023/06/12 10:45:28;;;;;;;10.13;4.00;;;;;;;-143.48;24.36;118439.88;5094377;28;20024;-38
2023/06/12 10:48:06;;;;;;;5.78;3.90;;;;;;;-143.48;24.93;118439.88;5094880;28;20408;-40
2023/06/12 10:50:50;;;;;;;11.27;3.65;;;;;;;-143.48;24.81;118439.88;5094317;28;20082;-39
2023/06/12 10:53:23;;;;;;;5.95;4.10;;;;;;;-143.48;24.80;118439.88;5094295;28;20028;-39
2023/06/12 10:55:53;;;;;;;5.60;3.90;;;;;;;-143.48;24.60;118439.88;5094291;28;20032;-40
2023/06/12 10:58:20;;;;;;;8.02;4.10;;;;;;;-143.48;24.51;118439.88;5076054;28;20056;-39
2023/06/12 11:00:51;;;;;;;7.50;3.90;;;;;;;-143.48;23.86;118439.88;5094215;28;20020;-40
2023/06/12 11:03:28;;;;;;;7.13;4.20;;;;;;;-143.48;24.12;118439.88;5094441;28;20103;-41
2023/06/12 11:05:56;;;;;;;10.25;3.90;;;;;;;-143.48;24.30;118439.88;5094356;28;20038;-41